< < Back
Terminal Aerodrome Forecast


Current Version              Previous Versions:   1  2  3  4  5  6  7  8  9  

Terminal Aerodrome Forecast

936
FTUS42 KCHS 300900 AAA
TAFSAV
TAF AMD
KSAV 300932Z 3010/3106 33004KT P6SM SCT025 BKN080
     FM301400 36008KT P6SM SCT020 BKN035
     FM302300 02005KT P6SM SCT020=



Latest METAR

968
SAUS80 KWBC 301800 RRA
MTRSAV
METAR KSAV 301753Z 00000KT 10SM BKN020 22/15 A2996 RMK AO2 SLP144
T02220150 10222 20183 58015


USA.gov is the U.S. government's official web portal to all federal, state and local government web resources and services.